Time;durP1;ratioP1;P1;durP2;ratioP2;P2;SDS_P1;SDS_P2;PMS_P1;PMS_P2;Temp;Humidity;BMP_temperature;BMP_pressure;BME280_temperature;BME280_humidity;BME280_pressure;Samples;Min_cycle;Max_cycle;Signal;HPM_P1;HPM_P2
2021/05/26 00:02:24;;;;;;;0.60;0.50;;;9.00;99.90;;;9.34;100.00;-20936.25;5098966;28;20438;-78
2021/05/26 00:04:52;;;;;;;0.70;0.60;;;9.00;99.90;;;9.40;100.00;-20937.91;5131802;27;20963;-78
2021/05/26 00:07:19;;;;;;;0.70;0.60;;;9.00;99.90;;;9.41;100.00;-20938.19;5133621;27;20928;-78
2021/05/26 00:09:47;;;;;;;0.70;0.60;;;9.00;99.90;;;9.46;100.00;-20939.44;5133760;27;20467;-78
2021/05/26 00:12:15;;;;;;;0.70;0.60;;;9.00;99.90;;;9.49;100.00;-20940.28;5115610;28;20436;-78
2021/05/26 00:14:43;;;;;;;0.70;0.60;;;9.00;99.90;;;9.48;100.00;-20940.13;5134273;27;20944;-78
2021/05/26 00:17:12;;;;;;;0.70;0.60;;;9.00;99.90;;;9.41;100.00;-20938.19;5132319;28;20436;-78
2021/05/26 00:19:42;;;;;;;0.70;0.60;;;9.00;99.90;;;9.40;100.00;-20937.91;5129576;28;20973;-77
2021/05/26 00:22:11;;;;;;;0.70;0.60;;;9.00;99.90;;;9.44;100.00;-20939.16;5124467;28;20449;-78
2021/05/26 00:24:39;;;;;;;0.70;0.60;;;9.00;99.90;;;9.54;100.00;-20941.81;5115811;28;20513;-77
2021/05/26 00:27:06;;;;;;;0.70;0.60;;;9.00;99.90;;;9.52;100.00;-20941.25;5115739;28;20421;-78
2021/05/26 00:29:34;;;;;;;0.70;0.60;;;9.00;99.90;;;9.49;100.00;-20940.41;5115358;28;20510;-78
2021/05/26 00:32:04;;;;;;;0.67;0.53;;;9.00;99.90;;;9.40;100.00;-20938.06;5103327;28;20508;-79
2021/05/26 00:34:32;;;;;;;0.60;0.50;;;9.00;99.90;;;9.43;100.00;-20938.88;5115945;28;21026;-78
2021/05/26 00:36:59;;;;;;;0.70;0.60;;;9.00;99.90;;;9.46;100.00;-20939.56;5132930;28;20436;-78
2021/05/26 00:39:28;;;;;;;0.70;0.60;;;9.00;99.90;;;9.47;100.00;-20939.72;5114910;28;20445;-78
2021/05/26 00:41:55;;;;;;;0.70;0.70;;;9.10;99.90;;;9.37;100.00;-20937.22;5127672;28;20435;-78
2021/05/26 00:44:23;;;;;;;0.70;0.50;;;9.00;99.90;;;9.46;100.00;-20939.44;5130135;28;20452;-78
2021/05/26 00:46:51;;;;;;;0.70;0.60;;;9.10;99.90;;;9.46;100.00;-20939.56;5115481;28;20465;-78
2021/05/26 00:49:21;;;;;;;0.70;0.60;;;9.10;99.90;;;9.49;100.00;-20940.41;5114928;28;20429;-78
2021/05/26 00:51:49;;;;;;;0.70;0.60;;;9.10;99.90;;;9.53;100.00;-20941.53;5134059;27;20506;-77
2021/05/26 00:54:17;;;;;;;0.60;0.50;;;9.10;99.90;;;9.44;100.00;-20939.16;5114876;28;20512;-78
2021/05/26 00:56:45;;;;;;;0.70;0.60;;;9.10;99.90;;;9.48;100.00;-20940.00;5133493;27;20747;-77
2021/05/26 00:59:15;;;;;;;0.70;0.60;;;9.10;99.90;;;9.49;100.00;-20940.41;5131624;27;20428;-78
2021/05/26 01:01:43;;;;;;;0.70;0.60;;;9.10;99.90;;;9.53;100.00;-20941.38;5115605;28;20441;-78
2021/05/26 01:04:11;;;;;;;0.60;0.50;;;9.10;99.90;;;9.53;100.00;-20941.53;5135244;27;20968;-78
2021/05/26 01:06:49;;;;;;;0.70;0.60;;;9.10;99.90;;;9.51;100.00;-20940.97;5136255;27;20482;-77
2021/05/26 01:09:17;;;;;;;0.70;0.60;;;9.10;99.90;;;9.55;100.00;-20941.94;5136273;27;20441;-78
2021/05/26 01:11:45;;;;;;;0.70;0.60;;;9.10;99.90;;;9.60;100.00;-20943.31;5136626;27;20498;-78
2021/05/26 01:14:13;;;;;;;0.70;0.50;;;9.10;99.90;;;9.67;100.00;-20945.41;5136856;27;20458;-78
2021/05/26 01:16:42;;;;;;;0.70;0.60;;;9.10;99.90;;;9.79;100.00;-20948.44;5136847;27;20804;-78
2021/05/26 01:19:12;;;;;;;0.70;0.60;;;9.20;99.90;;;9.82;100.00;-20949.28;5121167;27;21033;-78
2021/05/26 01:21:41;;;;;;;0.70;0.60;;;9.20;99.90;;;9.78;100.00;-20948.16;5137731;27;20426;-78
2021/05/26 01:24:11;;;;;;;0.70;0.60;;;9.30;99.90;;;9.75;100.00;-20947.34;5137449;27;20502;-78
2021/05/26 01:26:39;;;;;;;0.60;0.60;;;9.30;99.90;;;9.78;100.00;-20948.31;5137743;27;20429;-80
2021/05/26 01:29:10;;;;;;;0.70;0.60;;;9.30;99.90;;;9.80;100.00;-20948.72;5142205;27;20870;-79
2021/05/26 01:31:39;;;;;;;0.70;0.50;;;9.30;99.90;;;9.74;100.00;-20947.06;5140366;27;20471;-81
2021/05/26 01:34:09;;;;;;;0.70;0.60;;;9.30;99.90;;;9.80;100.00;-20948.84;5124221;27;20957;-77
2021/05/26 01:36:44;;;;;;;0.60;0.50;;;9.30;99.90;;;9.79;100.00;-20948.59;5142573;27;20436;-78
2021/05/26 01:39:15;;;;;;;0.60;0.60;;;9.20;99.90;;;9.67;100.00;-20945.25;5120843;27;20492;-78
2021/05/26 01:41:44;;;;;;;0.70;0.60;;;9.20;99.90;;;9.61;100.00;-20943.59;5140877;27;20463;-79
2021/05/26 01:44:13;;;;;;;0.70;0.60;;;9.20;99.90;;;9.58;100.00;-20942.91;5106910;28;20482;-80
2021/05/26 01:46:47;;;;;;;0.70;0.60;;;9.20;99.90;;;9.59;100.00;-20943.19;5100386;28;20458;-80
2021/05/26 01:49:15;;;;;;;0.70;0.50;;;9.20;99.90;;;9.52;100.00;-20941.09;5115189;28;20483;-80
2021/05/26 01:51:43;;;;;;;0.70;0.60;;;9.10;99.90;;;9.53;100.00;-20941.38;5128990;27;20850;-81
2021/05/26 01:54:13;;;;;;;0.60;0.50;;;9.10;99.90;;;9.50;100.00;-20940.69;5136400;27;20441;-80
2021/05/26 01:56:40;;;;;;;0.70;0.60;;;9.10;99.90;;;9.40;100.00;-20938.06;5118090;27;20502;-80
2021/05/26 01:59:10;;;;;;;0.70;0.60;;;9.00;99.90;;;9.44;100.00;-20939.03;5136133;27;20447;-79
2021/05/26 02:01:41;;;;;;;0.70;0.50;;;9.00;99.90;;;9.33;100.00;-20936.13;5136825;27;20445;-80
2021/05/26 02:04:09;;;;;;;0.70;0.60;;;9.00;99.90;;;9.40;100.00;-20937.91;5117070;28;20533;-79
2021/05/26 02:06:45;;;;;;;0.70;0.60;;;9.00;99.90;;;9.35;100.00;-20936.53;5118535;28;20453;-80
2021/05/26 02:09:15;;;;;;;0.70;0.60;;;8.90;99.90;;;9.28;100.00;-20934.59;5100034;28;20576;-79
2021/05/26 02:12:33;;;;;;;0.70;0.60;;;8.90;99.90;;;9.26;100.00;-20934.19;5099075;28;20549;-80
2021/05/26 02:14:34;;;;;;;0.70;0.57;;;8.90;99.90;;;9.29;100.00;-20935.00;5121495;27;20441;-81
2021/05/26 02:17:02;;;;;;;0.70;0.60;;;8.90;99.90;;;9.30;100.00;-20935.28;5119526;27;20440;-77
2021/05/26 02:19:32;;;;;;;0.70;0.60;;;8.90;99.90;;;9.27;100.00;-20934.31;5137412;27;20425;-79
2021/05/26 02:22:00;;;;;;;0.70;0.60;;;8.90;99.90;;;9.28;100.00;-20934.72;5120272;27;20433;-79
2021/05/26 02:24:33;;;;;;;0.63;0.57;;;8.90;99.90;;;9.28;100.00;-20934.59;5137644;27;20868;-78
2021/05/26 02:27:00;;;;;;;0.70;0.60;;;8.80;99.90;;;9.24;100.00;-20933.47;5130960;27;20845;-79
2021/05/26 02:29:29;;;;;;;0.70;0.50;;;8.80;99.90;;;9.26;100.00;-20934.03;5122636;27;20439;-80
2021/05/26 02:31:58;;;;;;;0.60;0.50;;;8.80;99.90;;;9.22;100.00;-20932.94;5135808;27;20480;-78
2021/05/26 02:34:26;;;;;;;0.60;0.50;;;8.80;99.90;;;9.24;100.00;-20933.47;5119357;27;20830;-80
2021/05/26 02:36:54;;;;;;;0.60;0.50;;;8.80;99.90;;;9.18;100.00;-20932.09;5116988;27;20437;-80
2021/05/26 02:39:22;;;;;;;0.70;0.57;;;8.80;99.90;;;9.13;100.00;-20930.72;5134700;27;20485;-79
2021/05/26 02:41:52;;;;;;;0.70;0.53;;;8.80;99.90;;;9.22;100.00;-20932.94;5135865;27;20439;-80
2021/05/26 02:44:20;;;;;;;0.70;0.57;;;8.80;99.90;;;9.17;100.00;-20931.81;5104562;27;20465;-79
2021/05/26 02:46:49;;;;;;;0.70;0.60;;;8.80;99.90;;;9.19;100.00;-20932.38;5117906;27;20446;-79
2021/05/26 02:49:17;;;;;;;0.70;0.60;;;8.80;99.90;;;9.17;100.00;-20931.69;5132593;27;20771;-79
2021/05/26 02:51:46;;;;;;;0.60;0.50;;;8.80;99.90;;;9.16;100.00;-20931.53;5114681;28;20556;-79
2021/05/26 02:54:13;;;;;;;0.70;0.60;;;8.80;99.90;;;9.13;100.00;-20930.72;5114777;28;20499;-79
2021/05/26 02:56:44;;;;;;;0.70;0.60;;;8.80;99.90;;;9.15;100.00;-20931.13;5120331;27;20761;-80
2021/05/26 02:59:31;;;;;;;0.70;0.60;;;8.70;99.90;;;9.15;100.00;-20931.13;5123194;27;20956;-78
2021/05/26 03:02:17;;;;;;;0.70;0.60;;;8.70;99.90;;;9.13;100.00;-20930.72;5117692;27;20514;-78
2021/05/26 03:04:53;;;;;;;0.70;0.50;;;8.70;99.90;;;9.17;100.00;-20931.81;5134935;27;20429;-78
2021/05/26 03:07:21;;;;;;;0.70;0.60;;;8.80;99.90;;;9.17;100.00;-20931.81;5134123;27;20441;-78
2021/05/26 03:09:50;;;;;;;0.70;0.60;;;8.80;99.90;;;9.17;100.00;-20931.81;5133548;27;20436;-80
2021/05/26 03:12:20;;;;;;;0.70;0.60;;;8.80;99.90;;;9.17;100.00;-20931.69;5132974;27;20462;-78
2021/05/26 03:14:53;;;;;;;0.70;0.60;;;8.80;99.90;;;9.22;100.00;-20932.94;5131219;27;20434;-78
2021/05/26 03:17:27;;;;;;;0.70;0.60;;;8.70;99.90;;;9.18;100.00;-20932.09;5134091;27;20769;-79
2021/05/26 03:19:58;;;;;;;0.70;0.60;;;8.70;99.90;;;9.14;100.00;-20931.00;5117189;27;20452;-80
2021/05/26 03:22:55;;;;;;;0.70;0.60;;;8.70;99.90;;;9.19;100.00;-20932.38;5134511;27;20498;-78
2021/05/26 03:25:49;;;;;;;0.70;0.60;;;8.80;99.90;;;9.22;100.00;-20932.94;5135763;27;20528;-79
2021/05/26 03:28:18;;;;;;;0.70;0.60;;;8.80;99.90;;;9.18;100.00;-20932.09;5114816;27;20484;-79
2021/05/26 03:30:47;;;;;;;0.70;0.50;;;8.80;99.90;;;9.16;100.00;-20931.41;5115407;27;21011;-78
2021/05/26 03:33:16;;;;;;;0.70;0.60;;;8.70;99.90;;;9.14;100.00;-20931.00;5132574;27;20439;-79
2021/05/26 03:35:44;;;;;;;0.67;0.57;;;8.70;99.90;;;9.18;100.00;-20931.97;5115052;28;20402;-79
2021/05/26 03:38:12;;;;;;;0.70;0.50;;;8.70;99.90;;;9.19;100.00;-20932.25;5113187;28;20465;-77
2021/05/26 03:41:06;;;;;;;0.70;0.60;;;8.80;99.90;;;9.23;100.00;-20933.22;5110642;28;20454;-79
2021/05/26 03:43:34;;;;;;;0.60;0.50;;;8.80;99.90;;;9.20;100.00;-20932.50;5115576;28;20437;-78
2021/05/26 03:46:04;;;;;;;0.60;0.60;;;8.80;99.90;;;9.29;100.00;-20935.00;5102418;27;20513;-78
2021/05/26 03:48:33;;;;;;;0.70;0.60;;;8.80;99.90;;;9.21;100.00;-20932.78;5117849;27;20546;-78
2021/05/26 03:51:02;;;;;;;0.70;0.60;;;8.80;99.90;;;9.19;100.00;-20932.38;5119334;27;21046;-79
2021/05/26 03:53:32;;;;;;;0.70;0.60;;;8.70;99.90;;;9.16;100.00;-20931.53;5116544;27;20456;-80
2021/05/26 03:56:03;;;;;;;0.60;0.50;;;8.70;99.90;;;9.11;100.00;-20930.16;5134974;27;20452;-80
2021/05/26 03:58:32;;;;;;;0.70;0.50;;;8.70;99.90;;;9.22;100.00;-20932.94;5135258;27;20433;-79
2021/05/26 04:01:06;;;;;;;0.70;0.50;;;8.70;99.90;;;9.15;100.00;-20931.28;5131059;27;20498;-80
2021/05/26 04:03:36;;;;;;;0.63;0.50;;;8.70;99.90;;;9.16;100.00;-20931.53;5128814;27;20540;-77
2021/05/26 04:06:07;;;;;;;0.70;0.60;;;8.70;99.90;;;9.18;100.00;-20931.97;5135635;27;20953;-77
2021/05/26 04:08:35;;;;;;;0.60;0.50;;;8.70;99.90;;;9.12;100.00;-20930.28;5134648;27;20493;-76
2021/05/26 04:11:03;;;;;;;0.70;0.60;;;8.70;99.90;;;9.12;100.00;-20930.44;5114542;28;20462;-79
2021/05/26 04:13:56;;;;;;;0.67;0.60;;;8.70;99.90;;;9.12;100.00;-20930.44;5133167;27;20458;-79
2021/05/26 04:16:44;;;;;;;0.60;0.60;;;8.70;99.90;;;9.18;100.00;-20932.09;5137907;27;20422;-80
2021/05/26 04:19:25;;;;;;;0.70;0.60;;;8.70;99.90;;;9.22;100.00;-20932.94;5117827;28;20433;-77
2021/05/26 04:21:55;;;;;;;0.63;0.60;;;8.80;99.90;;;9.21;100.00;-20932.66;5134904;28;20421;-78
2021/05/26 04:24:24;;;;;;;0.70;0.60;;;8.80;99.90;;;9.25;100.00;-20933.75;5135098;28;20532;-76
2021/05/26 04:26:55;;;;;;;0.67;0.60;;;8.80;99.90;;;9.29;100.00;-20934.88;5133927;28;20793;-76
2021/05/26 04:29:24;;;;;;;0.70;0.60;;;8.80;99.90;;;9.31;100.00;-20935.56;5116354;28;20448;-75
2021/05/26 04:31:57;;;;;;;0.70;0.60;;;8.80;99.90;;;9.32;100.00;-20935.69;5135300;27;20480;-77
2021/05/26 04:34:27;;;;;;;0.60;0.60;;;8.80;99.90;;;9.32;100.00;-20935.84;5130684;27;20456;-78
2021/05/26 04:36:55;;;;;;;0.70;0.60;;;8.80;99.90;;;9.37;100.00;-20937.22;5121534;27;20417;-78
2021/05/26 04:39:23;;;;;;;0.60;0.50;;;8.90;99.90;;;9.31;100.00;-20935.41;5139903;27;20441;-78
2021/05/26 04:41:50;;;;;;;0.60;0.60;;;8.90;99.90;;;9.55;100.00;-20941.94;5120863;27;20435;-77
2021/05/26 04:44:18;;;;;;;0.70;0.60;;;9.00;99.90;;;9.55;100.00;-20942.06;5122111;27;20432;-80
2021/05/26 04:46:45;;;;;;;0.70;0.60;;;9.00;99.90;;;9.52;100.00;-20941.09;5119252;27;20446;-79
2021/05/26 04:49:14;;;;;;;0.70;0.60;;;9.00;99.90;;;9.50;100.00;-20940.53;5138233;27;20493;-77
2021/05/26 04:51:42;;;;;;;0.70;0.60;;;9.00;99.90;;;9.64;100.00;-20944.56;5122467;27;20467;-79
2021/05/26 04:54:09;;;;;;;0.70;0.70;;;9.10;99.90;;;9.75;100.00;-20947.34;5140250;27;20442;-76
2021/05/26 04:56:37;;;;;;;0.70;0.70;;;9.10;99.90;;;9.81;100.00;-20949.00;5139841;27;20464;-77
2021/05/26 04:59:04;;;;;;;0.70;0.60;;;9.20;99.90;;;9.79;100.00;-20948.59;5139254;27;20479;-77
2021/05/26 05:01:32;;;;;;;0.70;0.60;;;9.20;99.90;;;9.94;100.00;-20952.59;5120276;28;20919;-77
2021/05/26 05:03:59;;;;;;;0.70;0.70;;;9.30;99.90;;;9.97;100.00;-20953.44;5120810;27;20802;-78
2021/05/26 05:06:28;;;;;;;0.70;0.60;;;9.30;99.90;;;10.19;100.00;-20959.38;5102982;27;20443;-76
2021/05/26 05:08:55;;;;;;;0.70;0.60;;;9.40;99.90;;;10.15;100.00;-20958.41;5141677;27;20965;-77
2021/05/26 05:11:23;;;;;;;0.70;0.50;;;9.40;99.90;;;10.14;100.00;-20958.13;5123203;27;20464;-78
2021/05/26 05:13:51;;;;;;;0.70;0.60;;;9.50;99.90;;;10.16;100.00;-20958.69;5143678;27;20440;-77
2021/05/26 05:16:19;;;;;;;0.70;0.60;;;9.50;99.90;;;10.36;100.00;-20963.94;5138498;27;20439;-80
2021/05/26 05:18:47;;;;;;;0.70;0.60;;;9.50;99.90;;;10.39;100.00;-20964.78;5142430;27;20498;-79
2021/05/26 05:21:14;;;;;;;0.70;0.60;;;9.50;99.90;;;10.47;100.00;-20967.00;5141978;27;20446;-80
2021/05/26 05:23:43;;;;;;;0.70;0.60;;;9.60;99.90;;;10.37;100.00;-20964.22;5119312;27;20501;-79
2021/05/26 05:26:11;;;;;;;0.70;0.70;;;9.60;99.90;;;10.34;100.00;-20963.53;5137810;27;20461;-80
2021/05/26 05:28:38;;;;;;;0.70;0.60;;;9.60;99.90;;;10.55;100.00;-20969.06;5112192;28;20821;-80
2021/05/26 05:31:06;;;;;;;0.70;0.60;;;9.60;99.90;;;10.49;100.00;-20967.53;5116993;28;20848;-80
2021/05/26 05:33:35;;;;;;;0.70;0.70;;;9.70;99.90;;;10.63;100.00;-20971.41;5121244;27;20448;-79
2021/05/26 05:36:03;;;;;;;0.70;0.60;;;9.80;99.90;;;10.77;100.00;-20975.16;5121509;28;20437;-79
2021/05/26 05:38:31;;;;;;;0.70;0.60;;;9.80;99.90;;;10.74;100.00;-20974.31;5129239;27;20469;-79
2021/05/26 05:41:02;;;;;;;0.70;0.67;;;10.00;99.90;;;10.87;100.00;-20977.91;5124478;27;20446;-78
2021/05/26 05:43:29;;;;;;;0.70;0.60;;;10.10;99.90;;;11.28;100.00;-20988.97;5118659;27;20534;-79
2021/05/26 05:45:57;;;;;;;0.70;0.60;;;10.20;99.90;;;11.33;100.00;-20990.34;5130411;27;20431;-80
2021/05/26 05:48:25;;;;;;;0.70;0.60;;;10.30;99.90;;;11.40;100.00;-20992.16;5135082;27;20455;-79
2021/05/26 05:50:52;;;;;;;0.70;0.60;;;10.30;99.90;;;11.67;100.00;-20999.34;5124644;27;20441;-79
2021/05/26 05:53:20;;;;;;;0.70;0.63;;;10.50;99.90;;;11.54;100.00;-20996.03;5141356;27;20463;-80
2021/05/26 05:55:48;;;;;;;0.80;0.80;;;10.50;99.90;;;11.54;100.00;-20996.03;5149278;27;20452;-79
2021/05/26 05:58:23;;;;;;;0.70;0.60;;;10.40;99.90;;;11.39;100.00;-20991.75;5145712;27;20436;-79
2021/05/26 06:00:51;;;;;;;0.80;0.80;;;10.40;99.90;;;11.10;100.00;-20984.00;5144507;27;20418;-76
2021/05/26 06:03:21;;;;;;;0.70;0.70;;;10.30;99.90;;;11.11;100.00;-20984.41;5138491;27;20458;-77
2021/05/26 06:05:48;;;;;;;0.70;0.60;;;10.30;99.90;;;11.12;100.00;-20984.56;5139992;27;20440;-78
2021/05/26 06:08:16;;;;;;;0.70;0.60;;;10.30;99.90;;;11.24;100.00;-20987.88;5150484;27;20453;-78
2021/05/26 06:10:44;;;;;;;0.70;0.60;;;10.40;99.90;;;11.25;100.00;-20988.16;5149512;27;20412;-78
2021/05/26 06:13:13;;;;;;;0.70;0.60;;;10.40;99.90;;;11.31;100.00;-20989.81;5133391;27;20434;-76
2021/05/26 06:15:42;;;;;;;0.70;0.70;;;10.50;99.90;;;11.29;100.00;-20989.25;5114011;28;20420;-76
2021/05/26 06:18:10;;;;;;;0.70;0.60;;;10.50;99.90;;;11.18;100.00;-20986.06;5128098;28;20406;-77
2021/05/26 06:20:37;;;;;;;0.80;0.70;;;10.40;99.90;;;11.13;100.00;-20984.97;5121387;27;20444;-80
2021/05/26 06:23:05;;;;;;;0.70;0.60;;;10.40;99.90;;;11.01;100.00;-20981.66;5159971;27;20456;-78
2021/05/26 06:25:33;;;;;;;0.80;0.70;;;10.40;99.90;;;11.22;100.00;-20987.31;5143490;27;20396;-79
2021/05/26 06:28:01;;;;;;;0.70;0.70;;;10.30;99.90;;;11.23;100.00;-20987.47;5139696;27;20439;-77
2021/05/26 06:30:28;;;;;;;0.70;0.63;;;10.20;99.90;;;11.11;100.00;-20984.41;5126658;27;20477;-76
2021/05/26 06:32:57;;;;;;;0.70;0.60;;;10.20;99.90;;;10.98;100.00;-20980.81;5131762;27;20494;-78
2021/05/26 06:35:25;;;;;;;0.70;0.60;;;10.10;99.90;;;10.66;100.00;-20971.97;5140805;27;20488;-78
2021/05/26 06:37:53;;;;;;;0.80;0.70;;;10.10;99.90;;;10.83;100.00;-20976.69;5124018;27;20828;-78
2021/05/26 06:40:21;;;;;;;0.70;0.60;;;10.10;99.90;;;10.66;100.00;-20971.97;5120176;27;20528;-77
2021/05/26 06:42:48;;;;;;;0.73;0.70;;;10.10;99.90;;;10.69;100.00;-20972.94;5135217;27;20440;-77
2021/05/26 06:45:17;;;;;;;0.70;0.60;;;10.10;99.90;;;10.84;100.00;-20976.94;5097470;28;20705;-76
2021/05/26 06:47:45;;;;;;;0.70;0.70;;;10.10;99.90;;;10.89;100.00;-20978.34;5117557;27;20541;-76
2021/05/26 06:50:16;;;;;;;0.70;0.70;;;10.20;99.90;;;11.11;100.00;-20984.28;5130005;27;20880;-79
2021/05/26 06:52:45;;;;;;;0.70;0.60;;;10.30;99.90;;;11.02;100.00;-20981.94;5114274;28;20828;-78
2021/05/26 06:55:14;;;;;;;0.70;0.60;;;10.30;99.90;;;11.01;100.00;-20981.50;5114646;28;20416;-77
2021/05/26 06:57:43;;;;;;;0.70;0.60;;;10.20;99.90;;;10.99;100.00;-20981.09;5134250;27;20437;-79
2021/05/26 07:00:12;;;;;;;0.70;0.60;;;10.20;99.90;;;10.76;100.00;-20974.88;5117846;27;20443;-78
2021/05/26 07:02:40;;;;;;;0.70;0.60;;;10.10;99.90;;;10.96;100.00;-20980.28;5133464;27;20426;-78
2021/05/26 07:05:10;;;;;;;0.70;0.60;;;10.20;99.90;;;11.04;100.00;-20982.47;5134605;27;20438;-79
2021/05/26 07:07:39;;;;;;;0.70;0.60;;;10.30;99.90;;;11.15;100.00;-20985.38;5133471;27;20439;-79
2021/05/26 07:10:07;;;;;;;0.70;0.70;;;10.40;99.90;;;11.13;100.00;-20984.84;5116735;27;20473;-79
2021/05/26 07:12:35;;;;;;;0.70;0.60;;;10.40;99.90;;;11.28;100.00;-20988.84;5116719;27;20834;-78
2021/05/26 07:15:05;;;;;;;0.70;0.70;;;10.50;99.90;;;11.43;100.00;-20993.00;5133935;27;20428;-79
2021/05/26 07:17:32;;;;;;;0.70;0.60;;;10.50;99.90;;;11.41;100.00;-20992.28;5118542;27;20431;-78
2021/05/26 07:20:03;;;;;;;0.70;0.60;;;10.60;99.90;;;12.26;100.00;-21015.50;5127725;27;20435;-77
2021/05/26 07:22:31;;;;;;;0.70;0.70;;;10.80;99.90;;;12.35;100.00;-21017.84;5133957;27;20445;-77
2021/05/26 07:25:00;;;;;;;0.70;0.60;;;11.00;99.90;;;12.17;100.00;-21012.88;5134240;27;20993;-79
2021/05/26 07:27:27;;;;;;;0.80;0.73;;;11.20;99.90;;;12.17;100.00;-21012.88;5133637;27;20825;-78
2021/05/26 07:29:55;;;;;;;0.70;0.60;;;11.10;99.90;;;12.09;100.00;-21010.81;5122313;27;20440;-77
2021/05/26 07:32:23;;;;;;;0.70;0.60;;;11.10;99.90;;;12.13;100.00;-21011.78;5114886;27;20560;-79
2021/05/26 07:34:51;;;;;;;0.70;0.60;;;11.10;99.90;;;12.33;100.00;-21017.28;5113301;28;20448;-79
2021/05/26 07:37:19;;;;;;;0.70;0.70;;;11.40;99.90;;;12.08;100.00;-21010.53;5115736;27;20444;-79
2021/05/26 07:39:47;;;;;;;0.70;0.63;;;11.40;99.90;;;11.91;100.00;-21005.97;5131287;27;20668;-75
2021/05/26 07:42:17;;;;;;;0.70;0.60;;;11.40;99.90;;;12.08;100.00;-21010.53;5133393;27;20537;-77
2021/05/26 07:44:45;;;;;;;0.77;0.67;;;11.30;99.90;;;12.19;100.00;-21013.56;5121698;27;20482;-78
2021/05/26 07:47:15;;;;;;;0.70;0.67;;;11.40;99.90;;;12.19;100.00;-21013.44;5128668;27;20436;-78
2021/05/26 07:49:44;;;;;;;0.70;0.60;;;11.40;99.90;;;12.01;100.00;-21008.75;5134095;27;20780;-79
2021/05/26 07:52:18;;;;;;;0.70;0.70;;;11.40;99.90;;;12.47;100.00;-21021.03;5115661;27;20828;-78
2021/05/26 07:54:47;;;;;;;0.80;0.77;;;11.40;99.90;;;12.13;100.00;-21011.78;5115880;27;20459;-78
2021/05/26 07:57:16;;;;;;;0.70;0.67;;;11.40;99.90;;;12.00;100.00;-21008.31;5129731;27;20512;-77
2021/05/26 07:59:46;;;;;;;0.70;0.60;;;11.30;99.90;;;12.43;100.00;-21020.06;5128000;27;20489;-78
2021/05/26 08:02:14;;;;;;;0.70;0.70;;;11.40;99.90;;;12.45;100.00;-21020.63;5106039;28;20431;-78
2021/05/26 08:04:42;;;;;;;0.80;0.70;;;11.50;99.90;;;12.20;100.00;-21013.72;5117790;28;20531;-78
2021/05/26 08:07:09;;;;;;;0.70;0.70;;;11.50;99.90;;;12.51;100.00;-21022.25;5128109;27;20458;-78
2021/05/26 08:09:37;;;;;;;0.70;0.67;;;11.60;99.90;;;12.18;100.00;-21013.16;5134608;27;20482;-79
2021/05/26 08:12:08;;;;;;;0.70;0.70;;;11.60;99.90;;;12.40;100.00;-21019.09;5130448;27;20476;-78
2021/05/26 08:14:37;;;;;;;0.70;0.70;;;11.60;99.90;;;12.68;100.00;-21026.81;5131715;28;20905;-76
2021/05/26 08:17:05;;;;;;;0.70;0.60;;;11.90;99.90;;;12.50;100.00;-21022.00;5134609;27;20434;-79
2021/05/26 08:19:33;;;;;;;0.70;0.60;;;11.90;99.90;;;12.52;100.00;-21022.41;5134120;28;20453;-78
2021/05/26 08:22:01;;;;;;;0.80;0.70;;;11.90;99.90;;;12.78;100.00;-21029.59;5133133;28;20975;-79
2021/05/26 08:24:28;;;;;;;0.77;0.70;;;12.10;99.90;;;13.22;100.00;-21041.44;5126773;28;20482;-78
2021/05/26 08:26:58;;;;;;;1.63;1.20;;;12.30;99.90;;;13.04;100.00;-21036.63;5132651;28;20748;-78
2021/05/26 08:29:26;;;;;;;0.70;0.60;;;12.20;99.90;;;12.76;100.00;-21028.88;5135975;28;20396;-78
2021/05/26 08:31:58;;;;;;;0.70;0.60;;;12.00;99.90;;;12.62;100.00;-21025.03;5135121;27;20495;-79
2021/05/26 08:34:25;;;;;;;0.70;0.60;;;11.90;99.90;;;12.73;100.00;-21028.06;5116369;28;20493;-78
2021/05/26 08:36:55;;;;;;;0.70;0.60;;;11.90;99.90;;;12.75;100.00;-21028.63;5136053;27;20405;-79
2021/05/26 08:39:23;;;;;;;0.70;0.60;;;11.90;99.90;;;12.61;100.00;-21024.75;5135265;28;20451;-78
2021/05/26 08:41:52;;;;;;;0.70;0.70;;;12.00;99.90;;;12.63;100.00;-21025.44;5119689;27;20422;-78
2021/05/26 08:44:21;;;;;;;0.80;0.70;;;11.90;99.90;;;12.58;100.00;-21024.19;5130538;28;20518;-78
2021/05/26 08:46:52;;;;;;;0.80;0.70;;;11.80;99.90;;;12.67;100.00;-21026.41;5137362;27;20417;-79
2021/05/26 08:49:21;;;;;;;0.70;0.60;;;11.70;99.90;;;12.25;100.00;-21015.09;5137165;28;20528;-78
2021/05/26 08:51:49;;;;;;;0.80;0.80;;;11.70;99.90;;;12.47;100.00;-21021.03;5139922;28;20415;-79
2021/05/26 08:54:17;;;;;;;0.70;0.60;;;11.70;99.90;;;12.82;100.00;-21030.53;5129085;28;20455;-77
2021/05/26 08:56:45;;;;;;;0.70;0.60;;;11.90;99.90;;;12.76;100.00;-21028.88;5133611;28;20506;-79
2021/05/26 08:59:16;;;;;;;0.70;0.60;;;11.90;99.90;;;12.71;100.00;-21027.50;5137879;28;20450;-78
2021/05/26 09:01:48;;;;;;;0.70;0.60;;;11.90;99.90;;;12.98;100.00;-21034.81;5140995;28;20405;-79
2021/05/26 09:04:29;;;;;;;0.70;0.63;;;11.90;99.90;;;12.87;100.00;-21031.94;5136400;28;20478;-78
2021/05/26 09:07:11;;;;;;;0.77;0.70;;;12.00;99.90;;;13.03;100.00;-21036.34;5131853;28;20475;-77
2021/05/26 09:09:54;;;;;;;0.70;0.60;;;12.00;99.90;;;13.16;100.00;-21039.66;5137795;28;20470;-76
2021/05/26 09:12:33;;;;;;;0.80;0.70;;;12.00;99.90;;;13.58;100.00;-21050.97;5139296;28;20460;-78
2021/05/26 09:15:06;;;;;;;0.80;0.70;;;12.20;99.90;;;13.33;100.00;-21044.34;5138452;28;20436;-79
2021/05/26 09:17:34;;;;;;;0.70;0.60;;;12.40;99.90;;;13.86;100.00;-21058.53;5138554;27;20501;-77
2021/05/26 09:20:38;;;;;;;0.70;0.60;;;12.30;99.90;;;13.75;100.00;-21055.63;5141615;27;20448;-77
2021/05/26 09:23:09;;;;;;;0.70;0.60;;;12.40;99.90;;;14.00;100.00;-21062.41;5121240;28;20447;-79
2021/05/26 09:25:49;;;;;;;0.70;0.60;;;12.50;99.90;;;13.99;100.00;-21062.25;5120758;28;20993;-79
2021/05/26 09:28:35;;;;;;;0.70;0.60;;;12.70;99.90;;;14.01;100.00;-21062.81;5119392;28;20408;-78
2021/05/26 09:31:05;;;;;;;0.70;0.63;;;12.70;99.90;;;13.91;100.00;-21060.03;5120580;27;20430;-79
2021/05/26 09:33:36;;;;;;;0.70;0.60;;;13.00;99.90;;;13.96;100.00;-21061.44;5128275;27;20492;-78
2021/05/26 09:36:20;;;;;;;0.70;0.70;;;13.00;99.90;;;14.29;100.00;-21070.25;5126223;28;20404;-78
2021/05/26 09:38:51;;;;;;;0.70;0.60;;;13.10;99.90;;;14.63;100.00;-21079.34;5142965;27;20453;-77
2021/05/26 09:41:23;;;;;;;0.70;0.60;;;13.30;99.90;;;15.01;100.00;-21089.66;5125371;28;20460;-75
2021/05/26 09:43:53;;;;;;;0.70;0.63;;;13.40;99.90;;;14.94;100.00;-21087.84;5131683;27;20458;-77
2021/05/26 09:46:31;;;;;;;0.73;0.67;;;13.60;99.90;;;14.82;100.00;-21084.56;5148531;27;20431;-79
2021/05/26 09:49:11;;;;;;;0.70;0.60;;;13.80;99.90;;;14.96;100.00;-21088.41;5144742;27;20529;-76
2021/05/26 09:51:43;;;;;;;0.70;0.60;;;13.90;99.90;;;15.90;100.00;-21113.56;5142060;27;20429;-77
2021/05/26 09:54:16;;;;;;;0.70;0.70;;;13.70;99.90;;;15.54;100.00;-21103.94;5143692;27;20565;-77
2021/05/26 09:56:47;;;;;;;0.80;0.70;;;13.70;99.90;;;15.28;100.00;-21096.94;5145406;27;20400;-78
2021/05/26 09:59:15;;;;;;;0.70;0.60;;;13.80;99.90;;;14.70;100.00;-21081.25;5137075;27;20393;-77
2021/05/26 10:01:43;;;;;;;0.80;0.70;;;13.60;99.90;;;14.65;100.00;-21080.00;5142156;27;20425;-75
2021/05/26 10:04:11;;;;;;;0.80;0.70;;;13.60;99.90;;;14.96;100.00;-21088.41;5148390;27;20446;-78
2021/05/26 10:06:41;;;;;;;0.77;0.70;;;13.60;99.90;;;14.90;100.00;-21086.75;5143700;27;20455;-77
2021/05/26 10:09:33;;;;;;;0.70;0.60;;;13.60;99.90;;;14.77;100.00;-21083.19;5124314;28;20831;-76
2021/05/26 10:12:10;;;;;;;0.70;0.60;;;13.50;99.90;;;14.45;100.00;-21074.66;5122347;28;20469;-78
2021/05/26 10:14:42;;;;;;;0.73;0.70;;;13.30;99.90;;;14.04;100.00;-21063.34;5128083;27;20580;-78
2021/05/26 10:17:17;;;;;;;0.70;0.70;;;13.20;99.90;;;13.39;100.00;-21046.00;5128962;27;20540;-77
2021/05/26 10:19:49;;;;;;;0.70;0.60;;;12.90;99.90;;;12.91;100.00;-21033.03;5131733;27;20451;-78
2021/05/26 10:22:19;;;;;;;0.70;0.60;;;12.50;99.90;;;12.76;100.00;-21028.88;5116641;28;20453;-79
2021/05/26 10:24:48;;;;;;;0.70;0.67;;;12.20;99.90;;;12.81;100.00;-21030.28;5119794;28;20509;-78
2021/05/26 10:27:32;;;;;;;0.70;0.60;;;12.30;99.90;;;12.47;100.00;-21021.03;5120875;27;20497;-78